sensor_id;sensor_type;location;lat;lon;timestamp;pressure;altitude;pressure_sealevel;temperature;humidity
33496;BME280;19836;55.812;37.560;2022-07-24T00:00:22;99259.03;;;21.08;66.34
33496;BME280;19836;55.812;37.560;2022-07-24T00:02:48;99265.34;;;21.08;66.58
33496;BME280;19836;55.812;37.560;2022-07-24T00:05:14;99263.47;;;21.09;66.63
33496;BME280;19836;55.812;37.560;2022-07-24T00:07:40;99264.47;;;21.08;66.89
33496;BME280;19836;55.812;37.560;2022-07-24T00:10:07;99260.03;;;21.07;67.01
33496;BME280;19836;55.812;37.560;2022-07-24T00:12:33;99268.31;;;21.05;66.92
33496;BME280;19836;55.812;37.560;2022-07-24T00:14:59;99262.09;;;21.03;67.08
33496;BME280;19836;55.812;37.560;2022-07-24T00:17:25;99259.75;;;20.99;67.21
33496;BME280;19836;55.812;37.560;2022-07-24T00:19:51;99266.44;;;20.95;67.46
33496;BME280;19836;55.812;37.560;2022-07-24T00:22:17;99262.09;;;20.92;67.97
33496;BME280;19836;55.812;37.560;2022-07-24T00:24:43;99260.50;;;20.90;67.64
33496;BME280;19836;55.812;37.560;2022-07-24T00:27:11;99260.56;;;20.88;68.16
33496;BME280;19836;55.812;37.560;2022-07-24T00:29:42;99267.13;;;20.86;68.35
33496;BME280;19836;55.812;37.560;2022-07-24T00:36:09;99275.44;;;20.84;68.74
33496;BME280;19836;55.812;37.560;2022-07-24T00:41:35;99271.47;;;20.77;68.62
33496;BME280;19836;55.812;37.560;2022-07-24T00:44:12;99266.00;;;20.77;68.91
33496;BME280;19836;55.812;37.560;2022-07-24T00:46:43;99263.28;;;20.77;69.28
33496;BME280;19836;55.812;37.560;2022-07-24T00:49:18;99262.28;;;20.78;69.09
33496;BME280;19836;55.812;37.560;2022-07-24T00:51:58;99262.44;;;20.77;69.01
33496;BME280;19836;55.812;37.560;2022-07-24T00:57:40;99263.28;;;20.66;69.86
33496;BME280;19836;55.812;37.560;2022-07-24T01:00:58;99268.50;;;20.69;69.89
33496;BME280;19836;55.812;37.560;2022-07-24T04:43:49;99241.28;;;23.83;58.99
33496;BME280;19836;55.812;37.560;2022-07-24T04:55:17;99240.66;;;24.19;57.70
33496;BME280;19836;55.812;37.560;2022-07-24T04:57:43;99232.28;;;24.20;57.89
33496;BME280;19836;55.812;37.560;2022-07-24T05:00:11;99236.44;;;24.24;57.87
33496;BME280;19836;55.812;37.560;2022-07-24T05:02:37;99242.09;;;24.32;57.47
33496;BME280;19836;55.812;37.560;2022-07-24T05:05:04;99237.47;;;24.42;56.83
33496;BME280;19836;55.812;37.560;2022-07-24T05:07:29;99241.19;;;24.51;56.73
33496;BME280;19836;55.812;37.560;2022-07-24T05:09:56;99244.00;;;24.60;56.47
33496;BME280;19836;55.812;37.560;2022-07-24T05:12:23;99242.94;;;24.71;56.04
33496;BME280;19836;55.812;37.560;2022-07-24T05:14:49;99237.75;;;24.77;55.64
33496;BME280;19836;55.812;37.560;2022-07-24T05:17:15;99240.44;;;24.87;55.23
33496;BME280;19836;55.812;37.560;2022-07-24T05:19:41;99233.38;;;24.94;55.22
33496;BME280;19836;55.812;37.560;2022-07-24T05:22:09;99229.34;;;24.98;55.03
33496;BME280;19836;55.812;37.560;2022-07-24T05:24:34;99235.66;;;24.98;55.31
33496;BME280;19836;55.812;37.560;2022-07-24T05:27:01;99224.97;;;25.05;55.10
33496;BME280;19836;55.812;37.560;2022-07-24T05:29:26;99225.25;;;25.11;54.75
33496;BME280;19836;55.812;37.560;2022-07-24T05:31:53;99228.97;;;25.20;54.64
33496;BME280;19836;55.812;37.560;2022-07-24T05:34:23;99219.31;;;25.25;54.01
33496;BME280;19836;55.812;37.560;2022-07-24T05:36:49;99224.75;;;25.35;53.71
33496;BME280;19836;55.812;37.560;2022-07-24T05:39:15;99224.53;;;25.46;53.32
33496;BME280;19836;55.812;37.560;2022-07-24T05:41:41;99217.47;;;25.43;53.14
33496;BME280;19836;55.812;37.560;2022-07-24T05:44:07;99215.88;;;25.50;52.83
33496;BME280;19836;55.812;37.560;2022-07-24T05:46:33;99223.50;;;25.56;52.35
33496;BME280;19836;55.812;37.560;2022-07-24T05:48:59;99220.69;;;25.66;52.08
33496;BME280;19836;55.812;37.560;2022-07-24T05:51:25;99219.44;;;25.78;51.87
33496;BME280;19836;55.812;37.560;2022-07-24T05:53:53;99222.84;;;25.89;51.02
33496;BME280;19836;55.812;37.560;2022-07-24T05:56:19;99210.56;;;25.93;50.44
33496;BME280;19836;55.812;37.560;2022-07-24T05:58:45;99213.72;;;25.98;50.04
33496;BME280;19836;55.812;37.560;2022-07-24T06:01:11;99212.69;;;25.99;49.48
33496;BME280;19836;55.812;37.560;2022-07-24T06:03:37;99217.00;;;26.02;49.47
33496;BME280;19836;55.812;37.560;2022-07-24T06:06:06;99210.03;;;26.07;49.32
33496;BME280;19836;55.812;37.560;2022-07-24T06:08:32;99209.25;;;26.15;48.78
33496;BME280;19836;55.812;37.560;2022-07-24T06:10:58;99206.75;;;26.21;48.00
33496;BME280;19836;55.812;37.560;2022-07-24T06:13:24;99199.75;;;26.27;47.72
33496;BME280;19836;55.812;37.560;2022-07-24T06:15:50;99203.75;;;26.32;47.82
33496;BME280;19836;55.812;37.560;2022-07-24T06:18:17;99196.28;;;26.42;47.52
33496;BME280;19836;55.812;37.560;2022-07-24T06:20:43;99201.69;;;26.52;47.38
33496;BME280;19836;55.812;37.560;2022-07-24T06:23:09;99193.84;;;26.57;47.02
33496;BME280;19836;55.812;37.560;2022-07-24T06:25:35;99202.63;;;26.60;46.38
33496;BME280;19836;55.812;37.560;2022-07-24T06:28:01;99202.03;;;26.66;46.16
33496;BME280;19836;55.812;37.560;2022-07-24T06:30:27;99200.66;;;26.70;45.83
33496;BME280;19836;55.812;37.560;2022-07-24T06:32:58;99203.78;;;26.75;45.13
33496;BME280;19836;55.812;37.560;2022-07-24T06:35:28;99195.22;;;26.78;44.88
33496;BME280;19836;55.812;37.560;2022-07-24T06:37:59;99190.09;;;26.83;44.79
33496;BME280;19836;55.812;37.560;2022-07-24T06:40:26;99190.50;;;26.88;44.91
33496;BME280;19836;55.812;37.560;2022-07-24T06:42:52;99196.69;;;26.90;44.79
33496;BME280;19836;55.812;37.560;2022-07-24T06:45:18;99191.03;;;26.92;44.64
33496;BME280;19836;55.812;37.560;2022-07-24T06:47:43;99182.94;;;26.90;43.96
33496;BME280;19836;55.812;37.560;2022-07-24T06:50:11;99182.63;;;26.93;43.43
33496;BME280;19836;55.812;37.560;2022-07-24T06:52:37;99184.25;;;27.04;43.54
33496;BME280;19836;55.812;37.560;2022-07-24T06:55:04;99180.03;;;27.17;43.51
33496;BME280;19836;55.812;37.560;2022-07-24T06:57:30;99186.59;;;27.24;43.09
33496;BME280;19836;55.812;37.560;2022-07-24T06:59:56;99181.31;;;27.31;42.98
33496;BME280;19836;55.812;37.560;2022-07-24T07:02:22;99176.16;;;27.36;42.65
33496;BME280;19836;55.812;37.560;2022-07-24T07:04:49;99177.72;;;27.38;42.32
33496;BME280;19836;55.812;37.560;2022-07-24T07:07:16;99170.53;;;27.45;42.31
33496;BME280;19836;55.812;37.560;2022-07-24T07:09:43;99168.31;;;27.49;42.30
33496;BME280;19836;55.812;37.560;2022-07-24T07:12:09;99170.88;;;27.50;42.40
33496;BME280;19836;55.812;37.560;2022-07-24T07:14:35;99171.75;;;27.51;42.22
33496;BME280;19836;55.812;37.560;2022-07-24T07:17:01;99170.25;;;27.56;42.05
33496;BME280;19836;55.812;37.560;2022-07-24T07:19:27;99171.97;;;27.65;42.24
33496;BME280;19836;55.812;37.560;2022-07-24T07:21:53;99164.78;;;27.72;42.07
33496;BME280;19836;55.812;37.560;2022-07-24T07:24:18;99160.34;;;27.79;41.96
33496;BME280;19836;55.812;37.560;2022-07-24T07:26:45;99155.19;;;27.84;41.83
33496;BME280;19836;55.812;37.560;2022-07-24T07:29:11;99154.84;;;27.79;41.85
33496;BME280;19836;55.812;37.560;2022-07-24T07:31:37;99161.22;;;27.80;42.00
33496;BME280;19836;55.812;37.560;2022-07-24T07:34:03;99158.81;;;27.93;42.27
33496;BME280;19836;55.812;37.560;2022-07-24T07:36:29;99156.41;;;27.98;41.81
33496;BME280;19836;55.812;37.560;2022-07-24T07:38:55;99157.47;;;27.97;41.15
33496;BME280;19836;55.812;37.560;2022-07-24T07:41:24;99151.75;;;27.90;40.83
33496;BME280;19836;55.812;37.560;2022-07-24T07:43:50;99143.84;;;27.87;40.85
33496;BME280;19836;55.812;37.560;2022-07-24T07:46:16;99148.50;;;27.95;41.39
33496;BME280;19836;55.812;37.560;2022-07-24T07:48:42;99148.34;;;28.04;41.54
33496;BME280;19836;55.812;37.560;2022-07-24T07:51:08;99151.81;;;28.06;40.56
33496;BME280;19836;55.812;37.560;2022-07-24T07:53:34;99144.22;;;28.08;40.27
33496;BME280;19836;55.812;37.560;2022-07-24T07:56:00;99143.34;;;28.08;39.78
33496;BME280;19836;55.812;37.560;2022-07-24T07:58:27;99143.91;;;28.11;39.31
33496;BME280;19836;55.812;37.560;2022-07-24T08:00:53;99144.25;;;28.16;39.48
33496;BME280;19836;55.812;37.560;2022-07-24T08:03:19;99153.53;;;28.23;39.10
33496;BME280;19836;55.812;37.560;2022-07-24T08:05:46;99146.63;;;28.19;38.97
33496;BME280;19836;55.812;37.560;2022-07-24T08:08:12;99145.44;;;28.22;39.23
33496;BME280;19836;55.812;37.560;2022-07-24T08:10:38;99147.66;;;28.26;39.15
33496;BME280;19836;55.812;37.560;2022-07-24T08:13:04;99147.34;;;28.29;38.81
33496;BME280;19836;55.812;37.560;2022-07-24T08:15:32;99139.38;;;28.26;38.81
33496;BME280;19836;55.812;37.560;2022-07-24T08:17:58;99138.91;;;28.39;38.96
33496;BME280;19836;55.812;37.560;2022-07-24T08:20:26;99144.94;;;28.58;39.38
33496;BME280;19836;55.812;37.560;2022-07-24T08:22:52;99125.94;;;28.71;39.15
33496;BME280;19836;55.812;37.560;2022-07-24T08:25:21;99134.56;;;28.84;39.07
33496;BME280;19836;55.812;37.560;2022-07-24T08:27:47;99135.22;;;28.86;38.97
33496;BME280;19836;55.812;37.560;2022-07-24T08:30:13;99133.50;;;28.85;38.86
33496;BME280;19836;55.812;37.560;2022-07-24T08:32:39;99131.47;;;28.87;39.05
33496;BME280;19836;55.812;37.560;2022-07-24T08:35:06;99120.38;;;28.95;38.74
33496;BME280;19836;55.812;37.560;2022-07-24T08:37:36;99119.91;;;29.00;38.86
33496;BME280;19836;55.812;37.560;2022-07-24T08:40:03;99118.84;;;29.01;38.76
33496;BME280;19836;55.812;37.560;2022-07-24T08:42:30;99122.13;;;29.04;38.96
33496;BME280;19836;55.812;37.560;2022-07-24T08:44:56;99117.59;;;29.11;38.72
33496;BME280;19836;55.812;37.560;2022-07-24T08:47:22;99108.94;;;29.22;38.60
33496;BME280;19836;55.812;37.560;2022-07-24T08:49:53;99102.34;;;29.31;38.50
33496;BME280;19836;55.812;37.560;2022-07-24T08:52:23;99099.41;;;29.33;38.57
33496;BME280;19836;55.812;37.560;2022-07-24T08:54:49;99096.63;;;29.33;38.53
33496;BME280;19836;55.812;37.560;2022-07-24T08:57:15;99103.75;;;29.27;38.52
33496;BME280;19836;55.812;37.560;2022-07-24T08:59:41;99096.69;;;29.25;38.10
33496;BME280;19836;55.812;37.560;2022-07-24T09:02:07;99099.47;;;29.17;38.30
33496;BME280;19836;55.812;37.560;2022-07-24T09:04:39;99103.28;;;29.08;38.41
33496;BME280;19836;55.812;37.560;2022-07-24T09:07:17;99106.94;;;29.08;39.12
33496;BME280;19836;55.812;37.560;2022-07-24T09:09:56;99096.53;;;29.18;39.38
33496;BME280;19836;55.812;37.560;2022-07-24T09:12:23;99102.34;;;29.31;38.87
33496;BME280;19836;55.812;37.560;2022-07-24T09:14:49;99092.06;;;29.48;37.78
33496;BME280;19836;55.812;37.560;2022-07-24T09:17:17;99090.16;;;29.56;37.43
33496;BME280;19836;55.812;37.560;2022-07-24T09:19:48;99092.16;;;29.70;37.53
33496;BME280;19836;55.812;37.560;2022-07-24T09:25:26;99087.66;;;30.22;37.15
33496;BME280;19836;55.812;37.560;2022-07-24T09:28:03;99095.19;;;30.65;36.48
33496;BME280;19836;55.812;37.560;2022-07-24T09:30:34;99090.69;;;32.02;34.76
33496;BME280;19836;55.812;37.560;2022-07-24T09:33:22;99089.84;;;33.73;32.26
33496;BME280;19836;55.812;37.560;2022-07-24T09:35:52;99090.78;;;35.62;30.33
33496;BME280;19836;55.812;37.560;2022-07-24T09:38:20;99086.41;;;35.79;29.39
33496;BME280;19836;55.812;37.560;2022-07-24T09:40:51;99085.34;;;35.10;29.30
33496;BME280;19836;55.812;37.560;2022-07-24T09:43:25;99094.00;;;33.43;30.77
33496;BME280;19836;55.812;37.560;2022-07-24T09:46:02;99101.56;;;32.39;32.54
33496;BME280;19836;55.812;37.560;2022-07-24T09:48:30;99094.50;;;31.65;33.80
33496;BME280;19836;55.812;37.560;2022-07-24T09:51:03;99091.56;;;31.67;34.36
33496;BME280;19836;55.812;37.560;2022-07-24T09:53:32;99089.72;;;32.30;34.01
33496;BME280;19836;55.812;37.560;2022-07-24T09:56:07;99087.88;;;34.27;32.05
33496;BME280;19836;55.812;37.560;2022-07-24T09:58:36;99087.28;;;36.48;29.53
33496;BME280;19836;55.812;37.560;2022-07-24T10:01:04;99085.66;;;38.33;26.85
33496;BME280;19836;55.812;37.560;2022-07-24T10:03:32;99090.31;;;39.26;25.35
33496;BME280;19836;55.812;37.560;2022-07-24T10:06:04;99084.41;;;39.74;24.52
33496;BME280;19836;55.812;37.560;2022-07-24T10:08:31;99092.03;;;39.39;24.61
33496;BME280;19836;55.812;37.560;2022-07-24T10:10:58;99079.88;;;39.84;23.95
33496;BME280;19836;55.812;37.560;2022-07-24T10:13:25;99089.53;;;40.44;23.58
33496;BME280;19836;55.812;37.560;2022-07-24T10:19:03;99077.50;;;37.84;25.96
33496;BME280;19836;55.812;37.560;2022-07-24T10:21:34;99076.53;;;39.48;24.05
33496;BME280;19836;55.812;37.560;2022-07-24T10:26:48;99067.09;;;42.13;21.25
33496;BME280;19836;55.812;37.560;2022-07-24T10:29:17;99078.72;;;43.01;20.73
33496;BME280;19836;55.812;37.560;2022-07-24T10:31:45;99070.94;;;43.60;19.88
33496;BME280;19836;55.812;37.560;2022-07-24T10:34:27;99071.38;;;43.88;19.84
33496;BME280;19836;55.812;37.560;2022-07-24T10:40:03;99071.06;;;44.56;18.79
33496;BME280;19836;55.812;37.560;2022-07-24T10:51:03;99055.53;;;42.62;19.99
33496;BME280;19836;55.812;37.560;2022-07-24T10:59:07;99041.56;;;44.27;18.07
33496;BME280;19836;55.812;37.560;2022-07-24T11:01:48;99046.75;;;44.75;17.71
33496;BME280;19836;55.812;37.560;2022-07-24T11:07:11;99037.66;;;44.73;17.26
33496;BME280;19836;55.812;37.560;2022-07-24T11:10:03;99039.97;;;44.91;17.19
33496;BME280;19836;55.812;37.560;2022-07-24T11:12:38;99037.97;;;44.87;17.38
33496;BME280;19836;55.812;37.560;2022-07-24T11:15:07;99039.94;;;45.11;17.08
33496;BME280;19836;55.812;37.560;2022-07-24T11:17:51;99029.72;;;45.25;16.62
33496;BME280;19836;55.812;37.560;2022-07-24T11:20:19;99029.78;;;45.05;17.32
33496;BME280;19836;55.812;37.560;2022-07-24T11:22:53;99022.94;;;45.21;17.19
33496;BME280;19836;55.812;37.560;2022-07-24T11:25:27;99025.72;;;45.46;16.68
33496;BME280;19836;55.812;37.560;2022-07-24T11:30:23;99011.22;;;45.68;16.31
33496;BME280;19836;55.812;37.560;2022-07-24T11:32:49;99004.41;;;45.74;16.28
33496;BME280;19836;55.812;37.560;2022-07-24T11:35:15;99009.38;;;45.08;16.48
33496;BME280;19836;55.812;37.560;2022-07-24T11:37:43;99009.56;;;43.97;16.69
33496;BME280;19836;55.812;37.560;2022-07-24T11:40:15;99004.75;;;42.94;17.99
33496;BME280;19836;55.812;37.560;2022-07-24T11:42:42;99005.69;;;43.56;17.42
33496;BME280;19836;55.812;37.560;2022-07-24T11:45:08;99010.16;;;42.64;17.60
33496;BME280;19836;55.812;37.560;2022-07-24T11:47:34;98991.47;;;41.14;19.04
33496;BME280;19836;55.812;37.560;2022-07-24T11:50:02;98995.63;;;42.19;18.41
33496;BME280;19836;55.812;37.560;2022-07-24T11:52:32;98993.66;;;41.50;19.12
33496;BME280;19836;55.812;37.560;2022-07-24T11:55:02;98992.03;;;39.72;20.39
33496;BME280;19836;55.812;37.560;2022-07-24T11:57:32;98993.84;;;37.94;22.03
33496;BME280;19836;55.812;37.560;2022-07-24T11:59:58;98982.31;;;36.65;23.56
33496;BME280;19836;55.812;37.560;2022-07-24T12:02:24;98986.66;;;35.81;24.62
33496;BME280;19836;55.812;37.560;2022-07-24T12:04:51;98977.34;;;35.05;25.81
33496;BME280;19836;55.812;37.560;2022-07-24T12:07:22;98972.31;;;34.57;26.58
33496;BME280;19836;55.812;37.560;2022-07-24T12:09:57;98966.09;;;34.55;27.28
33496;BME280;19836;55.812;37.560;2022-07-24T12:12:34;98970.44;;;37.12;25.88
33496;BME280;19836;55.812;37.560;2022-07-24T12:15:04;98970.56;;;37.35;24.72
33496;BME280;19836;55.812;37.560;2022-07-24T12:17:33;98973.50;;;36.43;25.15
33496;BME280;19836;55.812;37.560;2022-07-24T12:20:01;98959.31;;;37.05;24.97
33496;BME280;19836;55.812;37.560;2022-07-24T12:22:29;98964.34;;;37.51;24.02
33496;BME280;19836;55.812;37.560;2022-07-24T12:24:57;98950.78;;;38.94;22.93
33496;BME280;19836;55.812;37.560;2022-07-24T12:27:39;98947.72;;;40.85;21.43
33496;BME280;19836;55.812;37.560;2022-07-24T12:30:30;98949.06;;;41.85;19.71
33496;BME280;19836;55.812;37.560;2022-07-24T12:33:09;98944.53;;;42.42;19.08
33496;BME280;19836;55.812;37.560;2022-07-24T12:38:32;98946.25;;;43.26;17.95
33496;BME280;19836;55.812;37.560;2022-07-24T12:43:47;98929.84;;;43.90;17.53
33496;BME280;19836;55.812;37.560;2022-07-24T12:46:13;98935.56;;;44.20;17.38
33496;BME280;19836;55.812;37.560;2022-07-24T12:48:40;98931.06;;;44.34;17.07
33496;BME280;19836;55.812;37.560;2022-07-24T12:51:09;98925.97;;;44.31;17.18
33496;BME280;19836;55.812;37.560;2022-07-24T12:53:41;98928.22;;;44.44;16.66
33496;BME280;19836;55.812;37.560;2022-07-24T12:56:12;98925.53;;;45.32;16.73
33496;BME280;19836;55.812;37.560;2022-07-24T12:58:48;98933.00;;;44.93;16.22
33496;BME280;19836;55.812;37.560;2022-07-24T13:01:15;98931.03;;;44.79;16.47
33496;BME280;19836;55.812;37.560;2022-07-24T13:03:57;98927.34;;;44.78;16.87
33496;BME280;19836;55.812;37.560;2022-07-24T13:06:48;98920.56;;;44.84;16.57
33496;BME280;19836;55.812;37.560;2022-07-24T13:09:15;98926.53;;;44.63;16.57
33496;BME280;19836;55.812;37.560;2022-07-24T13:11:43;98927.94;;;44.35;16.47
33496;BME280;19836;55.812;37.560;2022-07-24T13:14:12;98924.56;;;44.53;16.49
33496;BME280;19836;55.812;37.560;2022-07-24T13:16:40;98916.66;;;44.65;17.05
33496;BME280;19836;55.812;37.560;2022-07-24T13:19:08;98920.03;;;44.67;16.96
33496;BME280;19836;55.812;37.560;2022-07-24T13:21:34;98912.13;;;44.64;16.58
33496;BME280;19836;55.812;37.560;2022-07-24T13:24:03;98918.59;;;44.75;16.95
33496;BME280;19836;55.812;37.560;2022-07-24T13:26:32;98916.34;;;44.72;16.86
33496;BME280;19836;55.812;37.560;2022-07-24T13:28:58;98918.06;;;44.68;16.41
33496;BME280;19836;55.812;37.560;2022-07-24T13:31:25;98913.56;;;44.52;15.98
33496;BME280;19836;55.812;37.560;2022-07-24T13:33:51;98901.94;;;44.53;16.31
33496;BME280;19836;55.812;37.560;2022-07-24T13:36:18;98902.22;;;44.47;16.30
33496;BME280;19836;55.812;37.560;2022-07-24T13:38:44;98895.72;;;44.41;16.15
33496;BME280;19836;55.812;37.560;2022-07-24T13:41:10;98893.16;;;44.45;16.56
33496;BME280;19836;55.812;37.560;2022-07-24T13:43:37;98899.66;;;44.70;16.32
33496;BME280;19836;55.812;37.560;2022-07-24T13:46:03;98886.88;;;44.98;16.13
33496;BME280;19836;55.812;37.560;2022-07-24T13:48:29;98882.00;;;45.08;15.89
33496;BME280;19836;55.812;37.560;2022-07-24T13:50:55;98879.19;;;45.03;16.20
33496;BME280;19836;55.812;37.560;2022-07-24T13:53:22;98880.44;;;44.67;16.49
33496;BME280;19836;55.812;37.560;2022-07-24T13:55:48;98877.06;;;44.65;16.32
33496;BME280;19836;55.812;37.560;2022-07-24T13:58:14;98873.09;;;44.46;16.61
33496;BME280;19836;55.812;37.560;2022-07-24T14:00:40;98872.16;;;44.86;16.38
33496;BME280;19836;55.812;37.560;2022-07-24T14:03:06;98875.22;;;45.14;16.59
33496;BME280;19836;55.812;37.560;2022-07-24T14:05:34;98873.94;;;45.45;16.16
33496;BME280;19836;55.812;37.560;2022-07-24T14:08:00;98868.84;;;45.47;15.92
33496;BME280;19836;55.812;37.560;2022-07-24T14:10:26;98865.91;;;45.62;15.94
33496;BME280;19836;55.812;37.560;2022-07-24T14:12:52;98866.41;;;45.26;16.00
33496;BME280;19836;55.812;37.560;2022-07-24T14:15:17;98860.31;;;44.89;16.42
33496;BME280;19836;55.812;37.560;2022-07-24T14:17:44;98856.00;;;45.06;16.71
33496;BME280;19836;55.812;37.560;2022-07-24T14:20:11;98847.47;;;45.11;16.66
33496;BME280;19836;55.812;37.560;2022-07-24T14:22:39;98850.69;;;44.90;16.98
33496;BME280;19836;55.812;37.560;2022-07-24T14:25:06;98845.94;;;44.70;16.92
33496;BME280;19836;55.812;37.560;2022-07-24T14:27:32;98850.22;;;44.53;16.50
33496;BME280;19836;55.812;37.560;2022-07-24T14:29:59;98840.88;;;43.97;16.50
33496;BME280;19836;55.812;37.560;2022-07-24T14:32:25;98843.16;;;43.75;17.08
33496;BME280;19836;55.812;37.560;2022-07-24T14:34:54;98838.84;;;43.53;16.84
33496;BME280;19836;55.812;37.560;2022-07-24T14:37:20;98840.16;;;43.25;17.26
33496;BME280;19836;55.812;37.560;2022-07-24T14:39:46;98834.78;;;42.62;17.27
33496;BME280;19836;55.812;37.560;2022-07-24T14:42:12;98828.31;;;41.35;18.06
33496;BME280;19836;55.812;37.560;2022-07-24T14:44:38;98817.31;;;40.48;19.08
33496;BME280;19836;55.812;37.560;2022-07-24T14:47:04;98815.50;;;39.87;19.72
33496;BME280;19836;55.812;37.560;2022-07-24T14:49:33;98816.13;;;38.77;20.87
33496;BME280;19836;55.812;37.560;2022-07-24T14:51:59;98804.25;;;37.90;21.57
33496;BME280;19836;55.812;37.560;2022-07-24T14:54:26;98805.13;;;37.38;22.50
33496;BME280;19836;55.812;37.560;2022-07-24T14:56:52;98809.75;;;37.44;22.77
33496;BME280;19836;55.812;37.560;2022-07-24T14:59:18;98807.06;;;37.90;22.41
33496;BME280;19836;55.812;37.560;2022-07-24T15:01:44;98799.06;;;37.93;22.48
33496;BME280;19836;55.812;37.560;2022-07-24T15:04:13;98791.00;;;37.85;22.34
33496;BME280;19836;55.812;37.560;2022-07-24T15:06:39;98796.75;;;37.38;22.50
33496;BME280;19836;55.812;37.560;2022-07-24T15:09:05;98789.91;;;36.75;23.15
33496;BME280;19836;55.812;37.560;2022-07-24T15:11:31;98789.13;;;36.14;23.93
33496;BME280;19836;55.812;37.560;2022-07-24T15:13:57;98793.94;;;35.58;24.65
33496;BME280;19836;55.812;37.560;2022-07-24T15:16:23;98792.53;;;35.18;25.06
33496;BME280;19836;55.812;37.560;2022-07-24T15:18:49;98791.44;;;34.88;25.15
33496;BME280;19836;55.812;37.560;2022-07-24T15:21:15;98786.88;;;34.56;25.56
33496;BME280;19836;55.812;37.560;2022-07-24T15:23:41;98792.06;;;34.46;25.70
33496;BME280;19836;55.812;37.560;2022-07-24T15:26:07;98793.59;;;34.29;25.95
33496;BME280;19836;55.812;37.560;2022-07-24T15:28:32;98778.53;;;33.92;26.16
33496;BME280;19836;55.812;37.560;2022-07-24T15:30:59;98790.91;;;33.64;26.97
33496;BME280;19836;55.812;37.560;2022-07-24T15:33:26;98781.75;;;33.31;27.21
33496;BME280;19836;55.812;37.560;2022-07-24T15:35:52;98789.81;;;33.13;27.86
33496;BME280;19836;55.812;37.560;2022-07-24T15:38:18;98783.13;;;32.88;28.00
33496;BME280;19836;55.812;37.560;2022-07-24T15:40:45;98789.28;;;32.77;28.27
33496;BME280;19836;55.812;37.560;2022-07-24T15:43:11;98784.75;;;32.63;28.64
33496;BME280;19836;55.812;37.560;2022-07-24T15:45:37;98789.00;;;32.52;28.79
33496;BME280;19836;55.812;37.560;2022-07-24T15:48:04;98789.38;;;32.43;28.87
33496;BME280;19836;55.812;37.560;2022-07-24T15:50:30;98787.19;;;32.32;29.17
33496;BME280;19836;55.812;37.560;2022-07-24T15:52:56;98789.25;;;32.23;29.35
33496;BME280;19836;55.812;37.560;2022-07-24T15:55:22;98784.25;;;32.40;29.55
33496;BME280;19836;55.812;37.560;2022-07-24T15:57:48;98786.75;;;32.28;29.71
33496;BME280;19836;55.812;37.560;2022-07-24T16:00:15;98790.94;;;32.11;29.89
33496;BME280;19836;55.812;37.560;2022-07-24T16:02:42;98782.91;;;31.95;30.73
33496;BME280;19836;55.812;37.560;2022-07-24T16:05:09;98783.25;;;31.79;30.65
33496;BME280;19836;55.812;37.560;2022-07-24T16:07:35;98787.38;;;31.62;30.81
33496;BME280;19836;55.812;37.560;2022-07-24T16:10:03;98781.06;;;31.47;30.95
33496;BME280;19836;55.812;37.560;2022-07-24T16:12:30;98793.34;;;31.38;31.01
33496;BME280;19836;55.812;37.560;2022-07-24T16:14:56;98789.81;;;31.23;31.52
33496;BME280;19836;55.812;37.560;2022-07-24T16:17:22;98798.03;;;31.16;31.58
33496;BME280;19836;55.812;37.560;2022-07-24T16:19:48;98809.25;;;31.08;31.47
33496;BME280;19836;55.812;37.560;2022-07-24T16:22:14;98805.97;;;30.98;31.59
33496;BME280;19836;55.812;37.560;2022-07-24T16:24:40;98798.75;;;30.83;31.84
33496;BME280;19836;55.812;37.560;2022-07-24T16:27:06;98810.16;;;30.73;31.98
33496;BME280;19836;55.812;37.560;2022-07-24T16:29:32;98801.41;;;30.70;32.08
33496;BME280;19836;55.812;37.560;2022-07-24T16:31:58;98800.34;;;30.71;32.26
33496;BME280;19836;55.812;37.560;2022-07-24T16:34:24;98799.63;;;30.83;32.14
33496;BME280;19836;55.812;37.560;2022-07-24T16:36:50;98795.78;;;30.84;32.21
33496;BME280;19836;55.812;37.560;2022-07-24T16:39:16;98794.19;;;30.75;32.33
33496;BME280;19836;55.812;37.560;2022-07-24T16:41:42;98802.34;;;30.62;32.60
33496;BME280;19836;55.812;37.560;2022-07-24T16:44:08;98795.72;;;30.42;32.85
33496;BME280;19836;55.812;37.560;2022-07-24T16:46:34;98799.72;;;30.25;33.14
33496;BME280;19836;55.812;37.560;2022-07-24T16:49:00;98793.19;;;30.12;33.59
33496;BME280;19836;55.812;37.560;2022-07-24T16:51:25;98785.34;;;30.01;34.26
33496;BME280;19836;55.812;37.560;2022-07-24T16:53:51;98798.00;;;29.95;34.70
33496;BME280;19836;55.812;37.560;2022-07-24T16:56:17;98792.78;;;29.86;34.62
33496;BME280;19836;55.812;37.560;2022-07-24T16:58:43;98804.09;;;29.76;35.39
33496;BME280;19836;55.812;37.560;2022-07-24T17:01:10;98798.41;;;29.63;35.64
33496;BME280;19836;55.812;37.560;2022-07-24T17:03:36;98799.16;;;29.57;35.67
33496;BME280;19836;55.812;37.560;2022-07-24T17:06:03;98803.00;;;29.48;35.92
33496;BME280;19836;55.812;37.560;2022-07-24T17:08:29;98806.22;;;29.37;36.26
33496;BME280;19836;55.812;37.560;2022-07-24T17:10:58;98807.16;;;29.30;36.52
33496;BME280;19836;55.812;37.560;2022-07-24T17:13:24;98810.84;;;29.22;37.06
33496;BME280;19836;55.812;37.560;2022-07-24T17:15:50;98810.56;;;29.17;36.62
33496;BME280;19836;55.812;37.560;2022-07-24T17:18:16;98810.97;;;29.06;36.73
33496;BME280;19836;55.812;37.560;2022-07-24T17:20:43;98806.03;;;28.94;37.35
33496;BME280;19836;55.812;37.560;2022-07-24T17:23:11;98805.31;;;28.77;37.88
33496;BME280;19836;55.812;37.560;2022-07-24T17:25:38;98814.69;;;28.68;38.29
33496;BME280;19836;55.812;37.560;2022-07-24T17:28:07;98813.00;;;28.59;38.41
33496;BME280;19836;55.812;37.560;2022-07-24T17:30:34;98811.34;;;28.50;38.63